sensor_id;sensor_type;location;lat;lon;timestamp;P1;durP1;ratioP1;P2;durP2;ratioP2
61642;SDS011;47551;52.506;4.678;2022-11-14T00:00:04;20.90;;;18.70;;
61642;SDS011;47551;52.506;4.678;2022-11-14T00:00:25;20.92;;;18.83;;
61642;SDS011;47551;52.506;4.678;2022-11-14T00:00:46;20.83;;;18.70;;
61642;SDS011;47551;52.506;4.678;2022-11-14T00:01:07;21.23;;;19.02;;
61642;SDS011;47551;52.506;4.678;2022-11-14T00:01:27;21.10;;;18.90;;
61642;SDS011;47551;52.506;4.678;2022-11-14T00:01:48;21.70;;;19.50;;
61642;SDS011;47551;52.506;4.678;2022-11-14T00:02:08;21.53;;;19.33;;
61642;SDS011;47551;52.506;4.678;2022-11-14T00:02:28;20.70;;;18.60;;
61642;SDS011;47551;52.506;4.678;2022-11-14T00:02:48;21.70;;;19.50;;
61642;SDS011;47551;52.506;4.678;2022-11-14T00:03:09;21.17;;;19.08;;
61642;SDS011;47551;52.506;4.678;2022-11-14T00:03:29;20.93;;;18.83;;
61642;SDS011;47551;52.506;4.678;2022-11-14T00:03:49;21.67;;;19.50;;
61642;SDS011;47551;52.506;4.678;2022-11-14T00:04:10;21.47;;;19.37;;
61642;SDS011;47551;52.506;4.678;2022-11-14T00:04:30;21.40;;;19.30;;
61642;SDS011;47551;52.506;4.678;2022-11-14T00:04:50;20.93;;;18.83;;
61642;SDS011;47551;52.506;4.678;2022-11-14T00:05:10;21.25;;;19.05;;
61642;SDS011;47551;52.506;4.678;2022-11-14T00:05:31;22.00;;;19.70;;
61642;SDS011;47551;52.506;4.678;2022-11-14T00:05:51;22.03;;;19.73;;
61642;SDS011;47551;52.506;4.678;2022-11-14T00:06:11;21.40;;;19.20;;
61642;SDS011;47551;52.506;4.678;2022-11-14T00:06:31;21.50;;;19.30;;
61642;SDS011;47551;52.506;4.678;2022-11-14T00:06:51;21.07;;;18.97;;
61642;SDS011;47551;52.506;4.678;2022-11-14T00:07:12;21.80;;;19.50;;
61642;SDS011;47551;52.506;4.678;2022-11-14T00:07:33;21.50;;;19.30;;
61642;SDS011;47551;52.506;4.678;2022-11-14T00:07:53;21.75;;;19.55;;
61642;SDS011;47551;52.506;4.678;2022-11-14T00:08:18;22.20;;;19.90;;
61642;SDS011;47551;52.506;4.678;2022-11-14T00:08:38;22.10;;;19.90;;
61642;SDS011;47551;52.506;4.678;2022-11-14T00:08:59;21.90;;;19.60;;
61642;SDS011;47551;52.506;4.678;2022-11-14T00:09:19;21.77;;;19.55;;
61642;SDS011;47551;52.506;4.678;2022-11-14T00:09:39;22.07;;;19.77;;
61642;SDS011;47551;52.506;4.678;2022-11-14T00:10:02;22.02;;;19.73;;
61642;SDS011;47551;52.506;4.678;2022-11-14T00:10:22;21.33;;;19.17;;
61642;SDS011;47551;52.506;4.678;2022-11-14T00:10:44;21.40;;;19.30;;
61642;SDS011;47551;52.506;4.678;2022-11-14T00:11:04;21.83;;;19.63;;
61642;SDS011;47551;52.506;4.678;2022-11-14T00:11:24;21.15;;;18.95;;
61642;SDS011;47551;52.506;4.678;2022-11-14T00:11:45;21.40;;;19.07;;
61642;SDS011;47551;52.506;4.678;2022-11-14T00:12:05;22.37;;;20.00;;
61642;SDS011;47551;52.506;4.678;2022-11-14T00:12:25;21.87;;;19.60;;
61642;SDS011;47551;52.506;4.678;2022-11-14T00:12:45;21.98;;;19.67;;
61642;SDS011;47551;52.506;4.678;2022-11-14T00:13:06;21.93;;;19.63;;
61642;SDS011;47551;52.506;4.678;2022-11-14T00:13:26;21.77;;;19.47;;
61642;SDS011;47551;52.506;4.678;2022-11-14T00:13:46;21.08;;;18.98;;
61642;SDS011;47551;52.506;4.678;2022-11-14T00:14:08;21.87;;;19.60;;
61642;SDS011;47551;52.506;4.678;2022-11-14T00:14:28;21.98;;;19.77;;
61642;SDS011;47551;52.506;4.678;2022-11-14T00:14:48;22.93;;;20.53;;
61642;SDS011;47551;52.506;4.678;2022-11-14T00:15:09;22.83;;;20.43;;
61642;SDS011;47551;52.506;4.678;2022-11-14T00:15:31;22.17;;;19.88;;
61642;SDS011;47551;52.506;4.678;2022-11-14T00:15:52;22.30;;;20.02;;
61642;SDS011;47551;52.506;4.678;2022-11-14T00:16:15;22.10;;;19.80;;
61642;SDS011;47551;52.506;4.678;2022-11-14T00:16:35;21.60;;;19.30;;
61642;SDS011;47551;52.506;4.678;2022-11-14T00:16:55;22.27;;;19.97;;
61642;SDS011;47551;52.506;4.678;2022-11-14T00:17:15;22.47;;;20.17;;
61642;SDS011;47551;52.506;4.678;2022-11-14T00:17:38;22.70;;;20.40;;
61642;SDS011;47551;52.506;4.678;2022-11-14T00:17:59;22.77;;;20.47;;
61642;SDS011;47551;52.506;4.678;2022-11-14T00:18:19;23.40;;;21.00;;
61642;SDS011;47551;52.506;4.678;2022-11-14T00:18:40;22.80;;;20.50;;
61642;SDS011;47551;52.506;4.678;2022-11-14T00:19:00;22.35;;;20.08;;
61642;SDS011;47551;52.506;4.678;2022-11-14T00:19:20;22.73;;;20.53;;
61642;SDS011;47551;52.506;4.678;2022-11-14T00:19:40;22.43;;;20.23;;
61642;SDS011;47551;52.506;4.678;2022-11-14T00:20:01;22.27;;;19.97;;
61642;SDS011;47551;52.506;4.678;2022-11-14T00:20:21;23.17;;;20.80;;
61642;SDS011;47551;52.506;4.678;2022-11-14T00:20:41;22.98;;;20.67;;
61642;SDS011;47551;52.506;4.678;2022-11-14T00:21:01;22.73;;;20.43;;
61642;SDS011;47551;52.506;4.678;2022-11-14T00:21:21;23.03;;;20.63;;
61642;SDS011;47551;52.506;4.678;2022-11-14T00:21:42;22.53;;;20.13;;
61642;SDS011;47551;52.506;4.678;2022-11-14T00:22:02;23.43;;;21.03;;
61642;SDS011;47551;52.506;4.678;2022-11-14T00:22:22;24.67;;;22.07;;
61642;SDS011;47551;52.506;4.678;2022-11-14T00:22:42;22.73;;;20.33;;
61642;SDS011;47551;52.506;4.678;2022-11-14T00:23:02;22.37;;;20.07;;
61642;SDS011;47551;52.506;4.678;2022-11-14T00:23:23;22.30;;;20.00;;
61642;SDS011;47551;52.506;4.678;2022-11-14T00:23:43;22.00;;;19.80;;
61642;SDS011;47551;52.506;4.678;2022-11-14T00:24:03;22.80;;;20.50;;
61642;SDS011;47551;52.506;4.678;2022-11-14T00:24:23;22.70;;;20.40;;
61642;SDS011;47551;52.506;4.678;2022-11-14T00:24:43;22.38;;;20.10;;
61642;SDS011;47551;52.506;4.678;2022-11-14T00:25:04;22.60;;;20.30;;
61642;SDS011;47551;52.506;4.678;2022-11-14T00:25:24;22.90;;;20.60;;
61642;SDS011;47551;52.506;4.678;2022-11-14T00:25:44;22.33;;;20.13;;
61642;SDS011;47551;52.506;4.678;2022-11-14T00:26:04;22.67;;;20.33;;
61642;SDS011;47551;52.506;4.678;2022-11-14T00:26:24;23.37;;;20.97;;
61642;SDS011;47551;52.506;4.678;2022-11-14T00:26:45;23.63;;;21.23;;
61642;SDS011;47551;52.506;4.678;2022-11-14T00:27:05;23.33;;;20.95;;
61642;SDS011;47551;52.506;4.678;2022-11-14T00:27:25;23.27;;;20.97;;
61642;SDS011;47551;52.506;4.678;2022-11-14T00:27:45;22.73;;;20.43;;
61642;SDS011;47551;52.506;4.678;2022-11-14T00:28:06;23.37;;;20.97;;
61642;SDS011;47551;52.506;4.678;2022-11-14T00:28:26;23.52;;;21.02;;
61642;SDS011;47551;52.506;4.678;2022-11-14T00:28:46;23.87;;;21.37;;
61642;SDS011;47551;52.506;4.678;2022-11-14T00:29:06;22.97;;;20.57;;
61642;SDS011;47551;52.506;4.678;2022-11-14T00:29:26;22.87;;;20.53;;
61642;SDS011;47551;52.506;4.678;2022-11-14T00:29:46;23.63;;;21.13;;
61642;SDS011;47551;52.506;4.678;2022-11-14T00:30:07;23.05;;;20.75;;
61642;SDS011;47551;52.506;4.678;2022-11-14T00:30:27;22.63;;;20.30;;
61642;SDS011;47551;52.506;4.678;2022-11-14T00:30:47;23.27;;;20.87;;
61642;SDS011;47551;52.506;4.678;2022-11-14T00:31:10;23.00;;;20.60;;
61642;SDS011;47551;52.506;4.678;2022-11-14T00:31:31;23.52;;;21.15;;
61642;SDS011;47551;52.506;4.678;2022-11-14T00:31:51;23.47;;;20.97;;
61642;SDS011;47551;52.506;4.678;2022-11-14T00:32:11;23.60;;;21.20;;
61642;SDS011;47551;52.506;4.678;2022-11-14T00:32:31;24.02;;;21.52;;
61642;SDS011;47551;52.506;4.678;2022-11-14T00:32:51;24.03;;;21.43;;
61642;SDS011;47551;52.506;4.678;2022-11-14T00:33:11;24.17;;;21.67;;
61642;SDS011;47551;52.506;4.678;2022-11-14T00:33:32;24.00;;;21.40;;
61642;SDS011;47551;52.506;4.678;2022-11-14T00:33:52;23.60;;;21.10;;
61642;SDS011;47551;52.506;4.678;2022-11-14T00:34:12;23.47;;;20.97;;
61642;SDS011;47551;52.506;4.678;2022-11-14T00:34:32;24.37;;;21.73;;
61642;SDS011;47551;52.506;4.678;2022-11-14T00:34:53;24.47;;;21.77;;
61642;SDS011;47551;52.506;4.678;2022-11-14T00:35:13;24.02;;;21.50;;
61642;SDS011;47551;52.506;4.678;2022-11-14T00:35:33;24.73;;;22.03;;
61642;SDS011;47551;52.506;4.678;2022-11-14T00:35:54;24.40;;;21.80;;
61642;SDS011;47551;52.506;4.678;2022-11-14T00:36:14;23.88;;;21.48;;
61642;SDS011;47551;52.506;4.678;2022-11-14T00:36:35;25.20;;;22.50;;
61642;SDS011;47551;52.506;4.678;2022-11-14T00:36:55;23.83;;;21.30;;
61642;SDS011;47551;52.506;4.678;2022-11-14T00:37:15;23.47;;;21.00;;
61642;SDS011;47551;52.506;4.678;2022-11-14T00:37:35;24.10;;;21.53;;
61642;SDS011;47551;52.506;4.678;2022-11-14T00:37:55;24.35;;;21.85;;
61642;SDS011;47551;52.506;4.678;2022-11-14T00:38:16;24.47;;;21.90;;
61642;SDS011;47551;52.506;4.678;2022-11-14T00:38:36;24.03;;;21.47;;
61642;SDS011;47551;52.506;4.678;2022-11-14T00:38:56;23.67;;;21.17;;
61642;SDS011;47551;52.506;4.678;2022-11-14T00:39:16;24.00;;;21.60;;
61642;SDS011;47551;52.506;4.678;2022-11-14T00:39:36;24.00;;;21.50;;
61642;SDS011;47551;52.506;4.678;2022-11-14T00:39:57;24.47;;;21.83;;
61642;SDS011;47551;52.506;4.678;2022-11-14T00:40:17;24.30;;;21.80;;
61642;SDS011;47551;52.506;4.678;2022-11-14T00:40:40;24.77;;;22.17;;
61642;SDS011;47551;52.506;4.678;2022-11-14T00:41:00;24.58;;;21.98;;
61642;SDS011;47551;52.506;4.678;2022-11-14T00:41:23;24.55;;;21.95;;
61642;SDS011;47551;52.506;4.678;2022-11-14T00:41:46;24.33;;;21.80;;
61642;SDS011;47551;52.506;4.678;2022-11-14T00:42:06;24.80;;;22.20;;
61642;SDS011;47551;52.506;4.678;2022-11-14T00:42:26;23.83;;;21.23;;
61642;SDS011;47551;52.506;4.678;2022-11-14T00:42:46;23.93;;;21.40;;
61642;SDS011;47551;52.506;4.678;2022-11-14T00:43:06;24.50;;;21.93;;
61642;SDS011;47551;52.506;4.678;2022-11-14T00:43:27;24.30;;;21.70;;
61642;SDS011;47551;52.506;4.678;2022-11-14T00:43:47;24.67;;;21.97;;
61642;SDS011;47551;52.506;4.678;2022-11-14T00:44:07;24.70;;;22.10;;
61642;SDS011;47551;52.506;4.678;2022-11-14T00:44:27;24.70;;;22.10;;
61642;SDS011;47551;52.506;4.678;2022-11-14T00:44:47;24.73;;;22.13;;
61642;SDS011;47551;52.506;4.678;2022-11-14T00:45:08;24.53;;;21.97;;
61642;SDS011;47551;52.506;4.678;2022-11-14T00:45:28;24.63;;;22.03;;
61642;SDS011;47551;52.506;4.678;2022-11-14T00:45:48;24.67;;;22.17;;
61642;SDS011;47551;52.506;4.678;2022-11-14T00:46:09;24.47;;;21.87;;
61642;SDS011;47551;52.506;4.678;2022-11-14T00:46:29;24.13;;;21.63;;
61642;SDS011;47551;52.506;4.678;2022-11-14T00:46:49;24.30;;;21.70;;
61642;SDS011;47551;52.506;4.678;2022-11-14T00:47:09;24.93;;;22.33;;
61642;SDS011;47551;52.506;4.678;2022-11-14T00:47:29;25.00;;;22.30;;
61642;SDS011;47551;52.506;4.678;2022-11-14T00:47:49;24.60;;;22.00;;
61642;SDS011;47551;52.506;4.678;2022-11-14T00:48:10;24.73;;;22.03;;
61642;SDS011;47551;52.506;4.678;2022-11-14T00:48:32;24.85;;;22.23;;
61642;SDS011;47551;52.506;4.678;2022-11-14T00:48:53;25.10;;;22.40;;
61642;SDS011;47551;52.506;4.678;2022-11-14T00:49:13;25.20;;;22.40;;
61642;SDS011;47551;52.506;4.678;2022-11-14T00:49:36;24.80;;;22.10;;
61642;SDS011;47551;52.506;4.678;2022-11-14T00:49:56;24.77;;;22.17;;
61642;SDS011;47551;52.506;4.678;2022-11-14T00:50:16;24.40;;;21.80;;
61642;SDS011;47551;52.506;4.678;2022-11-14T00:50:36;24.92;;;22.23;;
61642;SDS011;47551;52.506;4.678;2022-11-14T00:50:57;24.80;;;22.20;;
61642;SDS011;47551;52.506;4.678;2022-11-14T00:51:17;25.10;;;22.50;;
61642;SDS011;47551;52.506;4.678;2022-11-14T00:51:37;24.63;;;22.03;;
61642;SDS011;47551;52.506;4.678;2022-11-14T00:51:57;24.37;;;21.77;;
61642;SDS011;47551;52.506;4.678;2022-11-14T00:52:17;24.90;;;22.30;;
61642;SDS011;47551;52.506;4.678;2022-11-14T00:52:37;25.20;;;22.50;;
61642;SDS011;47551;52.506;4.678;2022-11-14T00:52:58;24.77;;;22.17;;
61642;SDS011;47551;52.506;4.678;2022-11-14T00:53:18;24.07;;;21.50;;
61642;SDS011;47551;52.506;4.678;2022-11-14T00:53:38;24.50;;;21.90;;
61642;SDS011;47551;52.506;4.678;2022-11-14T00:53:58;24.80;;;22.10;;
61642;SDS011;47551;52.506;4.678;2022-11-14T00:54:19;24.83;;;22.20;;
61642;SDS011;47551;52.506;4.678;2022-11-14T00:54:39;25.90;;;22.98;;
61642;SDS011;47551;52.506;4.678;2022-11-14T00:54:59;25.80;;;23.00;;
61642;SDS011;47551;52.506;4.678;2022-11-14T00:55:19;25.60;;;22.90;;
61642;SDS011;47551;52.506;4.678;2022-11-14T00:55:40;26.33;;;23.47;;
61642;SDS011;47551;52.506;4.678;2022-11-14T00:56:00;25.33;;;22.63;;
61642;SDS011;47551;52.506;4.678;2022-11-14T00:56:20;25.17;;;22.47;;
61642;SDS011;47551;52.506;4.678;2022-11-14T00:56:40;24.80;;;22.20;;
61642;SDS011;47551;52.506;4.678;2022-11-14T00:57:00;25.40;;;22.37;;
61642;SDS011;47551;52.506;4.678;2022-11-14T00:57:21;26.07;;;22.83;;
61642;SDS011;47551;52.506;4.678;2022-11-14T00:57:41;25.57;;;22.87;;
61642;SDS011;47551;52.506;4.678;2022-11-14T00:58:01;26.00;;;23.20;;
61642;SDS011;47551;52.506;4.678;2022-11-14T00:58:21;26.65;;;23.25;;
61642;SDS011;47551;52.506;4.678;2022-11-14T00:58:41;27.27;;;23.03;;
61642;SDS011;47551;52.506;4.678;2022-11-14T00:59:02;25.47;;;22.40;;
61642;SDS011;47551;52.506;4.678;2022-11-14T00:59:22;26.17;;;22.77;;
61642;SDS011;47551;52.506;4.678;2022-11-14T00:59:42;25.07;;;22.33;;
61642;SDS011;47551;52.506;4.678;2022-11-14T01:00:03;26.53;;;23.10;;
61642;SDS011;47551;52.506;4.678;2022-11-14T01:00:24;25.83;;;23.02;;
61642;SDS011;47551;52.506;4.678;2022-11-14T01:00:44;26.58;;;23.77;;
61642;SDS011;47551;52.506;4.678;2022-11-14T01:01:04;25.63;;;22.93;;
61642;SDS011;47551;52.506;4.678;2022-11-14T01:01:24;25.60;;;22.80;;
61642;SDS011;47551;52.506;4.678;2022-11-14T01:01:46;26.52;;;23.02;;
61642;SDS011;47551;52.506;4.678;2022-11-14T01:02:06;26.97;;;23.43;;
61642;SDS011;47551;52.506;4.678;2022-11-14T01:02:26;26.30;;;23.40;;
61642;SDS011;47551;52.506;4.678;2022-11-14T01:02:47;26.02;;;23.27;;
61642;SDS011;47551;52.506;4.678;2022-11-14T01:03:07;26.40;;;23.50;;
61642;SDS011;47551;52.506;4.678;2022-11-14T01:03:27;27.17;;;23.83;;
61642;SDS011;47551;52.506;4.678;2022-11-14T01:03:48;27.13;;;23.58;;
61642;SDS011;47551;52.506;4.678;2022-11-14T01:04:08;28.13;;;24.08;;
61642;SDS011;47551;52.506;4.678;2022-11-14T01:04:28;26.53;;;23.43;;
61642;SDS011;47551;52.506;4.678;2022-11-14T01:04:49;26.70;;;23.60;;
61642;SDS011;47551;52.506;4.678;2022-11-14T01:05:09;26.57;;;23.63;;
61642;SDS011;47551;52.506;4.678;2022-11-14T01:05:29;27.33;;;23.93;;
61642;SDS011;47551;52.506;4.678;2022-11-14T01:05:50;27.53;;;24.13;;
61642;SDS011;47551;52.506;4.678;2022-11-14T01:06:10;26.70;;;23.70;;
61642;SDS011;47551;52.506;4.678;2022-11-14T01:06:30;27.30;;;24.25;;
61642;SDS011;47551;52.506;4.678;2022-11-14T01:06:50;27.33;;;24.23;;
61642;SDS011;47551;52.506;4.678;2022-11-14T01:07:11;28.53;;;24.30;;
61642;SDS011;47551;52.506;4.678;2022-11-14T01:07:31;27.70;;;23.73;;
61642;SDS011;47551;52.506;4.678;2022-11-14T01:07:51;27.80;;;23.83;;
61642;SDS011;47551;52.506;4.678;2022-11-14T01:08:12;26.67;;;23.60;;
61642;SDS011;47551;52.506;4.678;2022-11-14T01:08:33;27.42;;;24.27;;
61642;SDS011;47551;52.506;4.678;2022-11-14T01:08:53;26.93;;;23.80;;
61642;SDS011;47551;52.506;4.678;2022-11-14T01:09:14;27.00;;;23.65;;
61642;SDS011;47551;52.506;4.678;2022-11-14T01:09:34;27.63;;;24.03;;
61642;SDS011;47551;52.506;4.678;2022-11-14T01:09:54;27.77;;;24.40;;
61642;SDS011;47551;52.506;4.678;2022-11-14T01:10:15;27.90;;;24.03;;
61642;SDS011;47551;52.506;4.678;2022-11-14T01:10:42;27.63;;;24.02;;
61642;SDS011;47551;52.506;4.678;2022-11-14T01:11:07;26.88;;;23.52;;
61642;SDS011;47551;52.506;4.678;2022-11-14T01:11:27;27.40;;;24.35;;
61642;SDS011;47551;52.506;4.678;2022-11-14T01:11:48;28.70;;;24.57;;
61642;SDS011;47551;52.506;4.678;2022-11-14T01:12:08;27.93;;;24.20;;
61642;SDS011;47551;52.506;4.678;2022-11-14T01:12:28;27.37;;;24.17;;
61642;SDS011;47551;52.506;4.678;2022-11-14T01:12:48;26.87;;;23.33;;
61642;SDS011;47551;52.506;4.678;2022-11-14T01:13:09;27.87;;;24.33;;
61642;SDS011;47551;52.506;4.678;2022-11-14T01:13:30;29.02;;;24.33;;
61642;SDS011;47551;52.506;4.678;2022-11-14T01:13:50;28.10;;;24.35;;
61642;SDS011;47551;52.506;4.678;2022-11-14T01:14:11;28.60;;;24.57;;
61642;SDS011;47551;52.506;4.678;2022-11-14T01:14:31;28.02;;;24.38;;
61642;SDS011;47551;52.506;4.678;2022-11-14T01:14:51;28.47;;;24.00;;
61642;SDS011;47551;52.506;4.678;2022-11-14T01:15:14;29.40;;;24.58;;
61642;SDS011;47551;52.506;4.678;2022-11-14T01:15:38;28.77;;;25.27;;
61642;SDS011;47551;52.506;4.678;2022-11-14T01:15:59;28.80;;;25.30;;
61642;SDS011;47551;52.506;4.678;2022-11-14T01:16:19;28.67;;;24.33;;
61642;SDS011;47551;52.506;4.678;2022-11-14T01:16:40;28.67;;;24.50;;
61642;SDS011;47551;52.506;4.678;2022-11-14T01:17:00;28.77;;;24.67;;
61642;SDS011;47551;52.506;4.678;2022-11-14T01:17:21;29.30;;;24.25;;
61642;SDS011;47551;52.506;4.678;2022-11-14T01:17:42;29.73;;;24.47;;
61642;SDS011;47551;52.506;4.678;2022-11-14T01:18:02;29.13;;;24.80;;
61642;SDS011;47551;52.506;4.678;2022-11-14T01:18:25;29.17;;;24.57;;
61642;SDS011;47551;52.506;4.678;2022-11-14T01:18:45;29.80;;;24.58;;
61642;SDS011;47551;52.506;4.678;2022-11-14T01:19:05;29.42;;;24.73;;
61642;SDS011;47551;52.506;4.678;2022-11-14T01:19:26;28.67;;;24.47;;
61642;SDS011;47551;52.506;4.678;2022-11-14T01:19:46;29.07;;;24.00;;
61642;SDS011;47551;52.506;4.678;2022-11-14T01:20:06;29.33;;;24.30;;
61642;SDS011;47551;52.506;4.678;2022-11-14T01:20:26;30.00;;;24.77;;
61642;SDS011;47551;52.506;4.678;2022-11-14T01:20:47;29.43;;;24.30;;
61642;SDS011;47551;52.506;4.678;2022-11-14T01:21:08;31.08;;;24.70;;
61642;SDS011;47551;52.506;4.678;2022-11-14T01:21:29;30.45;;;24.73;;
61642;SDS011;47551;52.506;4.678;2022-11-14T01:21:49;29.63;;;24.57;;
61642;SDS011;47551;52.506;4.678;2022-11-14T01:22:09;28.67;;;24.00;;
61642;SDS011;47551;52.506;4.678;2022-11-14T01:22:30;29.20;;;24.33;;
61642;SDS011;47551;52.506;4.678;2022-11-14T01:22:50;27.73;;;23.40;;
61642;SDS011;47551;52.506;4.678;2022-11-14T01:23:11;28.90;;;23.93;;
61642;SDS011;47551;52.506;4.678;2022-11-14T01:23:31;30.70;;;24.85;;
61642;SDS011;47551;52.506;4.678;2022-11-14T01:23:54;30.57;;;25.17;;
61642;SDS011;47551;52.506;4.678;2022-11-14T01:24:14;29.13;;;24.42;;
61642;SDS011;47551;52.506;4.678;2022-11-14T01:24:34;30.17;;;24.23;;
61642;SDS011;47551;52.506;4.678;2022-11-14T01:24:55;30.00;;;24.67;;
61642;SDS011;47551;52.506;4.678;2022-11-14T01:25:17;30.33;;;25.00;;
61642;SDS011;47551;52.506;4.678;2022-11-14T01:25:37;30.20;;;25.37;;
61642;SDS011;47551;52.506;4.678;2022-11-14T01:26:05;29.95;;;25.00;;
61642;SDS011;47551;52.506;4.678;2022-11-14T01:26:26;29.50;;;24.73;;
61642;SDS011;47551;52.506;4.678;2022-11-14T01:26:46;30.63;;;25.13;;
61642;SDS011;47551;52.506;4.678;2022-11-14T01:27:08;30.45;;;24.95;;
61642;SDS011;47551;52.506;4.678;2022-11-14T01:27:29;29.93;;;25.00;;
61642;SDS011;47551;52.506;4.678;2022-11-14T01:27:50;30.67;;;25.30;;
61642;SDS011;47551;52.506;4.678;2022-11-14T01:28:12;30.67;;;24.97;;
61642;SDS011;47551;52.506;4.678;2022-11-14T01:28:32;30.75;;;25.08;;
61642;SDS011;47551;52.506;4.678;2022-11-14T01:28:53;30.92;;;25.80;;
61642;SDS011;47551;52.506;4.678;2022-11-14T01:29:13;31.43;;;25.43;;
61642;SDS011;47551;52.506;4.678;2022-11-14T01:29:33;31.80;;;25.47;;
61642;SDS011;47551;52.506;4.678;2022-11-14T01:29:53;30.70;;;24.63;;
61642;SDS011;47551;52.506;4.678;2022-11-14T01:30:13;31.77;;;25.67;;
61642;SDS011;47551;52.506;4.678;2022-11-14T01:30:34;31.17;;;25.77;;
61642;SDS011;47551;52.506;4.678;2022-11-14T01:30:54;31.60;;;25.73;;
61642;SDS011;47551;52.506;4.678;2022-11-14T01:31:19;32.15;;;25.90;;
61642;SDS011;47551;52.506;4.678;2022-11-14T01:31:39;31.05;;;25.70;;
61642;SDS011;47551;52.506;4.678;2022-11-14T01:31:59;32.15;;;25.85;;
61642;SDS011;47551;52.506;4.678;2022-11-14T01:32:20;31.23;;;25.08;;
61642;SDS011;47551;52.506;4.678;2022-11-14T01:32:40;31.40;;;25.50;;
61642;SDS011;47551;52.506;4.678;2022-11-14T01:33:00;32.30;;;25.10;;
61642;SDS011;47551;52.506;4.678;2022-11-14T01:33:21;33.03;;;25.27;;
61642;SDS011;47551;52.506;4.678;2022-11-14T01:33:41;32.45;;;26.08;;
61642;SDS011;47551;52.506;4.678;2022-11-14T01:34:01;32.63;;;25.53;;
61642;SDS011;47551;52.506;4.678;2022-11-14T01:34:22;33.40;;;25.83;;
61642;SDS011;47551;52.506;4.678;2022-11-14T01:34:42;30.77;;;25.52;;
61642;SDS011;47551;52.506;4.678;2022-11-14T01:35:02;31.83;;;25.70;;
61642;SDS011;47551;52.506;4.678;2022-11-14T01:35:22;32.47;;;25.83;;
61642;SDS011;47551;52.506;4.678;2022-11-14T01:35:43;33.58;;;26.38;;
61642;SDS011;47551;52.506;4.678;2022-11-14T01:36:03;32.83;;;25.77;;
61642;SDS011;47551;52.506;4.678;2022-11-14T01:36:24;31.95;;;25.55;;
61642;SDS011;47551;52.506;4.678;2022-11-14T01:36:44;33.27;;;25.93;;
61642;SDS011;47551;52.506;4.678;2022-11-14T01:37:04;32.97;;;25.77;;
61642;SDS011;47551;52.506;4.678;2022-11-14T01:37:24;33.00;;;25.70;;
61642;SDS011;47551;52.506;4.678;2022-11-14T01:37:44;33.90;;;26.20;;
61642;SDS011;47551;52.506;4.678;2022-11-14T01:38:05;32.33;;;26.37;;
61642;SDS011;47551;52.506;4.678;2022-11-14T01:38:28;32.50;;;25.87;;
61642;SDS011;47551;52.506;4.678;2022-11-14T01:38:51;33.65;;;26.50;;
61642;SDS011;47551;52.506;4.678;2022-11-14T01:39:11;33.58;;;26.08;;
61642;SDS011;47551;52.506;4.678;2022-11-14T01:39:32;32.30;;;26.17;;
61642;SDS011;47551;52.506;4.678;2022-11-14T01:39:52;32.70;;;26.50;;
61642;SDS011;47551;52.506;4.678;2022-11-14T01:40:12;32.15;;;25.40;;
61642;SDS011;47551;52.506;4.678;2022-11-14T01:40:32;32.17;;;25.70;;
61642;SDS011;47551;52.506;4.678;2022-11-14T01:40:52;31.63;;;25.80;;
61642;SDS011;47551;52.506;4.678;2022-11-14T01:41:13;32.43;;;26.17;;
61642;SDS011;47551;52.506;4.678;2022-11-14T01:41:34;33.20;;;26.15;;
61642;SDS011;47551;52.506;4.678;2022-11-14T01:41:54;34.30;;;26.47;;
61642;SDS011;47551;52.506;4.678;2022-11-14T01:42:14;34.00;;;26.80;;
61642;SDS011;47551;52.506;4.678;2022-11-14T01:42:34;33.45;;;26.42;;
61642;SDS011;47551;52.506;4.678;2022-11-14T01:43:34;35.28;;;26.55;;
61642;SDS011;47551;52.506;4.678;2022-11-14T01:43:55;34.63;;;25.65;;
61642;SDS011;47551;52.506;4.678;2022-11-14T01:44:15;32.93;;;26.27;;
61642;SDS011;47551;52.506;4.678;2022-11-14T01:44:37;33.38;;;26.77;;
61642;SDS011;47551;52.506;4.678;2022-11-14T01:44:57;33.70;;;26.10;;
61642;SDS011;47551;52.506;4.678;2022-11-14T01:46:29;34.00;;;26.88;;
61642;SDS011;47551;52.506;4.678;2022-11-14T01:46:52;34.85;;;27.02;;
61642;SDS011;47551;52.506;4.678;2022-11-14T01:47:16;34.50;;;26.90;;
61642;SDS011;47551;52.506;4.678;2022-11-14T01:47:40;33.33;;;26.38;;
61642;SDS011;47551;52.506;4.678;2022-11-14T01:48:00;34.55;;;26.70;;
61642;SDS011;47551;52.506;4.678;2022-11-14T01:48:48;34.28;;;26.88;;
61642;SDS011;47551;52.506;4.678;2022-11-14T01:49:16;33.83;;;26.77;;
61642;SDS011;47551;52.506;4.678;2022-11-14T01:49:38;33.60;;;26.75;;
61642;SDS011;47551;52.506;4.678;2022-11-14T01:50:01;34.55;;;26.50;;
61642;SDS011;47551;52.506;4.678;2022-11-14T01:50:23;35.42;;;26.77;;
61642;SDS011;47551;52.506;4.678;2022-11-14T01:50:43;34.77;;;26.90;;
61642;SDS011;47551;52.506;4.678;2022-11-14T01:51:06;34.87;;;26.70;;
61642;SDS011;47551;52.506;4.678;2022-11-14T01:51:58;34.63;;;27.13;;
61642;SDS011;47551;52.506;4.678;2022-11-14T01:52:59;35.05;;;27.33;;
61642;SDS011;47551;52.506;4.678;2022-11-14T01:53:19;35.43;;;27.57;;
61642;SDS011;47551;52.506;4.678;2022-11-14T01:53:40;36.17;;;27.73;;
61642;SDS011;47551;52.506;4.678;2022-11-14T01:54:01;35.75;;;27.35;;
61642;SDS011;47551;52.506;4.678;2022-11-14T01:54:23;33.90;;;27.58;;
61642;SDS011;47551;52.506;4.678;2022-11-14T01:54:48;34.88;;;27.40;;
61642;SDS011;47551;52.506;4.678;2022-11-14T01:55:08;35.45;;;27.35;;
61642;SDS011;47551;52.506;4.678;2022-11-14T01:55:29;35.80;;;27.58;;
61642;SDS011;47551;52.506;4.678;2022-11-14T01:55:52;37.63;;;27.83;;
61642;SDS011;47551;52.506;4.678;2022-11-14T01:56:14;35.60;;;27.48;;
61642;SDS011;47551;52.506;4.678;2022-11-14T01:56:37;34.92;;;27.63;;
61642;SDS011;47551;52.506;4.678;2022-11-14T01:56:59;34.80;;;27.27;;
61642;SDS011;47551;52.506;4.678;2022-11-14T01:57:21;34.85;;;27.73;;
61642;SDS011;47551;52.506;4.678;2022-11-14T01:57:44;37.88;;;28.15;;
61642;SDS011;47551;52.506;4.678;2022-11-14T01:58:07;35.65;;;27.65;;
61642;SDS011;47551;52.506;4.678;2022-11-14T01:58:28;35.33;;;27.25;;
61642;SDS011;47551;52.506;4.678;2022-11-14T01:58:51;35.73;;;27.03;;
61642;SDS011;47551;52.506;4.678;2022-11-14T01:59:16;36.78;;;28.02;;
61642;SDS011;47551;52.506;4.678;2022-11-14T01:59:38;36.28;;;27.83;;
61642;SDS011;47551;52.506;4.678;2022-11-14T02:00:00;35.75;;;27.70;;
61642;SDS011;47551;52.506;4.678;2022-11-14T02:00:21;37.95;;;28.15;;
61642;SDS011;47551;52.506;4.678;2022-11-14T02:00:44;37.90;;;28.47;;
61642;SDS011;47551;52.506;4.678;2022-11-14T02:01:04;37.22;;;27.92;;
61642;SDS011;47551;52.506;4.678;2022-11-14T02:01:26;36.92;;;27.33;;
61642;SDS011;47551;52.506;4.678;2022-11-14T02:01:47;36.50;;;27.65;;
61642;SDS011;47551;52.506;4.678;2022-11-14T02:02:12;36.22;;;27.70;;
61642;SDS011;47551;52.506;4.678;2022-11-14T02:02:34;37.00;;;28.23;;
61642;SDS011;47551;52.506;4.678;2022-11-14T02:02:54;38.83;;;28.87;;
61642;SDS011;47551;52.506;4.678;2022-11-14T02:03:14;37.80;;;27.92;;
61642;SDS011;47551;52.506;4.678;2022-11-14T02:03:36;36.87;;;28.27;;
61642;SDS011;47551;52.506;4.678;2022-11-14T02:03:58;38.17;;;29.10;;
61642;SDS011;47551;52.506;4.678;2022-11-14T02:04:20;36.20;;;27.63;;
61642;SDS011;47551;52.506;4.678;2022-11-14T02:04:42;38.72;;;28.73;;